createdAt,value
2018-01-25T00:01:56.293Z,3.00
2018-01-25T00:04:23.757Z,3.00
2018-01-25T00:06:51.979Z,2.90
2018-01-25T00:09:19.443Z,2.90
2018-01-25T00:11:46.885Z,2.90
2018-01-25T00:14:14.346Z,2.90
2018-01-25T00:16:41.814Z,2.70
2018-01-25T00:19:09.284Z,2.90
2018-01-25T00:21:36.736Z,2.90
2018-01-25T00:24:04.966Z,2.90
2018-01-25T00:26:32.448Z,3.00
2018-01-25T00:28:59.882Z,3.10
2018-01-25T00:31:27.723Z,3.10
2018-01-25T00:33:55.209Z,3.10
2018-01-25T00:36:22.671Z,3.20
2018-01-25T00:38:50.907Z,3.30
2018-01-25T00:41:18.362Z,3.30
2018-01-25T00:43:45.820Z,3.30
2018-01-25T00:46:13.286Z,3.30
2018-01-25T00:48:40.745Z,3.10
2018-01-25T00:51:08.208Z,3.10
2018-01-25T00:53:35.679Z,3.00
2018-01-25T00:56:03.142Z,3.10
2018-01-25T00:58:31.364Z,3.10
2018-01-25T01:00:58.825Z,3.00
2018-01-25T01:03:26.284Z,3.00
2018-01-25T01:05:53.732Z,3.20
2018-01-25T01:08:21.198Z,3.40
2018-01-25T01:10:48.644Z,3.30
2018-01-25T01:13:16.177Z,3.20
2018-01-25T01:15:43.578Z,3.20
2018-01-25T01:18:11.041Z,3.20
2018-01-25T01:20:38.490Z,2.90
2018-01-25T01:23:05.973Z,3.00
2018-01-25T01:25:33.409Z,3.00
2018-01-25T01:28:00.851Z,2.80
2018-01-25T01:30:28.315Z,2.30
2018-01-25T01:32:55.765Z,2.80
2018-01-25T01:35:23.223Z,2.80
2018-01-25T01:37:50.678Z,2.70
2018-01-25T01:40:18.166Z,2.70
2018-01-25T01:42:45.617Z,2.60
2018-01-25T01:45:13.076Z,2.60
2018-01-25T01:47:40.523Z,2.60
2018-01-25T01:50:07.965Z,2.50
2018-01-25T01:52:35.430Z,2.40
2018-01-25T01:55:03.656Z,2.50
2018-01-25T01:57:31.863Z,2.50
2018-01-25T02:00:00.099Z,2.50
2018-01-25T02:02:28.505Z,2.50
2018-01-25T02:04:55.957Z,2.60
2018-01-25T02:07:23.419Z,2.60
2018-01-25T02:09:50.880Z,2.60
2018-01-25T02:12:18.338Z,2.60
2018-01-25T02:14:45.797Z,2.60
2018-01-25T02:17:13.266Z,2.60
2018-01-25T02:19:40.830Z,2.70
2018-01-25T02:22:08.277Z,2.70
2018-01-25T02:24:35.733Z,2.70
2018-01-25T02:27:03.944Z,2.70
2018-01-25T02:29:32.164Z,2.60
2018-01-25T02:32:00.393Z,2.50
2018-01-25T02:34:28.624Z,2.50
2018-01-25T02:36:56.078Z,2.50
2018-01-25T02:39:23.530Z,2.70
2018-01-25T02:41:50.986Z,2.70
2018-01-25T02:44:18.441Z,2.80
2018-01-25T02:46:45.896Z,2.70
2018-01-25T02:49:13.365Z,2.70
2018-01-25T02:51:40.815Z,2.70
2018-01-25T02:54:08.331Z,2.70
2018-01-25T02:56:36.565Z,2.60
2018-01-25T02:59:04.019Z,2.60
2018-01-25T03:01:31.488Z,2.60
2018-01-25T03:03:58.943Z,2.60
2018-01-25T03:06:26.403Z,2.70
2018-01-25T03:08:53.869Z,2.70
2018-01-25T03:11:21.316Z,2.70
2018-01-25T03:13:48.777Z,2.80
2018-01-25T03:16:16.988Z,2.80
2018-01-25T03:18:44.462Z,2.80
2018-01-25T03:21:11.920Z,2.90
2018-01-25T03:23:39.363Z,3.00
2018-01-25T03:26:06.852Z,3.00
2018-01-25T03:28:34.309Z,2.90
2018-01-25T03:31:01.771Z,2.90
2018-01-25T03:33:29.231Z,3.00
2018-01-25T03:35:56.688Z,3.00
2018-01-25T03:38:24.914Z,2.80
2018-01-25T03:40:52.376Z,2.80
2018-01-25T03:43:19.827Z,2.80
2018-01-25T03:45:48.061Z,2.80
2018-01-25T03:48:15.520Z,2.70
2018-01-25T03:50:42.971Z,2.70
2018-01-25T03:53:10.424Z,2.70
2018-01-25T03:55:37.865Z,2.70
2018-01-25T03:58:05.315Z,2.50
2018-01-25T04:00:32.769Z,2.60
2018-01-25T04:03:00.226Z,2.80
2018-01-25T04:05:27.671Z,3.00
2018-01-25T04:07:55.121Z,3.00
2018-01-25T04:10:22.579Z,3.00
2018-01-25T04:12:50.038Z,3.10
2018-01-25T04:15:17.483Z,3.00
2018-01-25T04:17:44.933Z,2.90
2018-01-25T04:20:13.159Z,2.80
2018-01-25T04:22:40.600Z,2.80
2018-01-25T04:25:08.058Z,2.60
2018-01-25T04:27:35.510Z,2.70
2018-01-25T04:30:02.983Z,3.30
2018-01-25T04:32:31.188Z,2.70
2018-01-25T04:34:59.415Z,2.60
2018-01-25T04:37:26.869Z,2.70
2018-01-25T04:39:54.334Z,2.70
2018-01-25T04:42:21.779Z,2.80
2018-01-25T04:44:49.237Z,2.90
2018-01-25T04:47:16.712Z,2.80
2018-01-25T04:49:44.193Z,2.60
2018-01-25T04:52:11.631Z,2.60
2018-01-25T04:54:39.085Z,2.50
2018-01-25T04:57:06.541Z,2.40
2018-01-25T04:59:34.028Z,2.40
2018-01-25T05:02:01.478Z,2.40
2018-01-25T05:04:29.440Z,2.40
2018-01-25T05:06:56.938Z,2.50
2018-01-25T05:09:25.157Z,2.50
2018-01-25T05:11:52.660Z,2.50
2018-01-25T05:14:20.893Z,2.50
2018-01-25T05:16:50.784Z,2.50
2018-01-25T05:19:18.286Z,2.60
2018-01-25T05:21:45.803Z,2.60
2018-01-25T05:24:13.278Z,2.60
2018-01-25T05:26:40.716Z,2.50
2018-01-25T05:29:08.169Z,2.50
2018-01-25T05:31:35.616Z,2.50
2018-01-25T05:34:03.462Z,2.40
2018-01-25T05:36:31.319Z,2.50
2018-01-25T05:38:59.547Z,2.50
2018-01-25T05:41:27.014Z,2.40
2018-01-25T05:43:54.459Z,2.50
2018-01-25T05:46:21.923Z,2.40
2018-01-25T05:48:49.376Z,2.40
2018-01-25T05:51:16.853Z,2.50
2018-01-25T05:53:44.309Z,2.40
2018-01-25T05:56:11.770Z,2.60
2018-01-25T05:58:39.238Z,2.60
2018-01-25T06:01:06.698Z,2.70
2018-01-25T06:03:34.151Z,2.70
2018-01-25T06:06:01.602Z,2.80
2018-01-25T06:08:29.077Z,2.80
2018-01-25T06:10:57.290Z,2.80
2018-01-25T06:13:24.745Z,2.70
2018-01-25T06:15:52.199Z,2.70
2018-01-25T06:18:19.721Z,2.60
2018-01-25T06:20:47.130Z,2.60
2018-01-25T06:23:14.574Z,2.70
2018-01-25T06:25:42.028Z,2.40
2018-01-25T06:28:09.495Z,2.40
2018-01-25T06:30:36.950Z,2.50
2018-01-25T06:33:04.406Z,2.40
2018-01-25T06:35:31.860Z,2.40
2018-01-25T06:37:59.709Z,2.30
2018-01-25T06:40:27.573Z,2.30
2018-01-25T06:42:55.773Z,2.30
2018-01-25T06:45:23.246Z,2.20
2018-01-25T06:47:51.461Z,2.20
2018-01-25T06:50:19.706Z,2.20
2018-01-25T06:52:48.661Z,2.10
2018-01-25T06:55:16.134Z,2.10
2018-01-25T06:57:43.589Z,2.20
2018-01-25T07:00:11.075Z,2.10
2018-01-25T07:02:38.524Z,2.00
2018-01-25T07:05:05.982Z,2.10
2018-01-25T07:07:33.424Z,2.10
2018-01-25T07:10:00.924Z,2.10
2018-01-25T07:12:29.260Z,2.00
2018-01-25T07:14:56.713Z,1.90
2018-01-25T07:17:24.208Z,1.90
2018-01-25T07:19:52.430Z,1.90
2018-01-25T07:22:19.886Z,1.90
2018-01-25T07:24:47.336Z,1.90
2018-01-25T07:27:14.796Z,2.00
2018-01-25T07:29:42.244Z,1.90
2018-01-25T07:32:09.701Z,2.10
2018-01-25T07:34:37.163Z,2.00
2018-01-25T07:37:04.638Z,2.10
2018-01-25T07:39:32.083Z,2.10
2018-01-25T07:42:00.681Z,2.20
2018-01-25T07:44:28.141Z,2.20
2018-01-25T07:46:55.609Z,2.40
2018-01-25T07:49:23.075Z,2.40
2018-01-25T07:51:50.529Z,2.60
2018-01-25T07:54:17.990Z,2.70
2018-01-25T07:56:45.442Z,2.70
2018-01-25T07:59:12.907Z,2.70
2018-01-25T08:01:40.363Z,2.80
2018-01-25T08:04:07.814Z,2.90
2018-01-25T08:06:35.276Z,2.90
2018-01-25T08:09:02.735Z,2.90
2018-01-25T08:11:30.185Z,3.00
2018-01-25T08:13:57.642Z,3.10
2018-01-25T08:16:30.699Z,3.20
2018-01-25T08:18:58.144Z,3.30
2018-01-25T08:21:25.609Z,3.40
2018-01-25T08:23:53.052Z,3.60
2018-01-25T08:26:20.518Z,3.60
2018-01-25T08:28:47.979Z,3.90
2018-01-25T08:31:15.437Z,4.30
2018-01-25T08:33:42.906Z,4.30
2018-01-25T08:36:10.372Z,4.30
2018-01-25T08:38:38.273Z,3.50
2018-01-25T08:41:05.675Z,4.30
2018-01-25T08:43:33.142Z,4.50
2018-01-25T08:46:00.606Z,4.60
2018-01-25T08:48:28.071Z,4.70
2018-01-25T08:50:55.543Z,5.10
2018-01-25T08:53:22.993Z,5.20
2018-01-25T08:55:50.462Z,5.30
2018-01-25T08:58:18.688Z,5.90
2018-01-25T09:00:46.140Z,5.90
2018-01-25T09:03:13.607Z,6.30
2018-01-25T09:05:41.825Z,6.80
2018-01-25T09:08:10.049Z,6.90
2018-01-25T09:10:37.505Z,6.80
2018-01-25T09:13:04.951Z,6.90
2018-01-25T09:15:32.415Z,7.30
2018-01-25T09:17:59.870Z,7.50
2018-01-25T09:20:27.315Z,7.40
2018-01-25T09:22:54.761Z,7.60
2018-01-25T09:25:22.214Z,8.00
2018-01-25T09:27:50.499Z,8.30
2018-01-25T09:30:17.960Z,8.60
2018-01-25T09:32:45.421Z,8.70
2018-01-25T09:35:12.869Z,8.40
2018-01-25T09:37:40.334Z,8.40
2018-01-25T09:40:08.183Z,8.50
2018-01-25T09:42:35.644Z,8.90
2018-01-25T09:45:03.095Z,8.90
2018-01-25T09:47:30.563Z,9.20
2018-01-25T09:49:58.017Z,9.30
2018-01-25T09:52:25.503Z,9.40
2018-01-25T09:54:52.948Z,9.50
2018-01-25T09:57:20.401Z,9.80
2018-01-25T09:59:47.880Z,10.00
2018-01-25T10:02:15.326Z,10.20
2018-01-25T10:04:42.777Z,10.70
2018-01-25T10:07:10.257Z,11.00
2018-01-25T10:09:37.715Z,11.30
2018-01-25T10:12:05.938Z,11.30
2018-01-25T10:14:33.426Z,11.20
2018-01-25T10:17:00.895Z,11.20
2018-01-25T10:19:28.348Z,11.30
2018-01-25T10:21:55.810Z,11.20
2018-01-25T10:24:23.261Z,11.00
2018-01-25T10:26:50.717Z,10.70
2018-01-25T10:29:18.173Z,10.70
2018-01-25T10:31:45.609Z,10.60
2018-01-25T10:34:13.058Z,11.50
2018-01-25T10:36:40.508Z,11.70
2018-01-25T10:39:07.973Z,12.20
2018-01-25T10:41:35.814Z,12.20
2018-01-25T10:44:04.036Z,12.40
2018-01-25T10:46:31.501Z,12.30
2018-01-25T10:48:59.726Z,12.90
2018-01-25T10:51:27.939Z,12.90
2018-01-25T10:53:55.401Z,12.80
2018-01-25T10:56:22.847Z,13.10
2018-01-25T10:58:50.296Z,13.20
2018-01-25T11:01:23.358Z,13.20
2018-01-25T11:03:51.572Z,13.30
2018-01-25T11:06:19.021Z,13.30
2018-01-25T11:08:46.485Z,13.40
2018-01-25T11:11:13.933Z,13.30
2018-01-25T11:13:41.386Z,13.30
2018-01-25T11:16:08.838Z,13.40
2018-01-25T11:18:36.286Z,13.40
2018-01-25T11:21:03.732Z,13.60
2018-01-25T11:23:31.184Z,13.70
2018-01-25T11:25:59.433Z,13.80
2018-01-25T11:28:27.030Z,13.70
2018-01-25T11:30:55.241Z,13.40
2018-01-25T11:33:22.714Z,13.90
2018-01-25T11:35:50.176Z,14.10
2018-01-25T11:38:17.620Z,14.00
2018-01-25T11:40:45.086Z,13.80
2018-01-25T11:43:12.568Z,13.90
2018-01-25T11:45:40.034Z,13.80
2018-01-25T11:48:08.256Z,13.80
2018-01-25T11:50:35.717Z,13.80
2018-01-25T11:53:03.182Z,13.80
2018-01-25T11:55:30.645Z,13.80
2018-01-25T11:57:58.109Z,13.90
2018-01-25T12:00:25.558Z,13.90
2018-01-25T12:02:53.031Z,13.90
2018-01-25T12:05:20.494Z,13.80
2018-01-25T12:07:48.712Z,13.80
2018-01-25T12:10:16.173Z,13.70
2018-01-25T12:12:43.627Z,13.80
2018-01-25T12:15:11.086Z,13.80
2018-01-25T12:17:38.565Z,13.90
2018-01-25T12:20:06.026Z,14.00
2018-01-25T12:22:33.464Z,14.00
2018-01-25T12:25:00.910Z,14.00
2018-01-25T12:27:28.885Z,13.90
2018-01-25T12:29:56.352Z,13.90
2018-01-25T12:32:23.833Z,13.90
2018-01-25T12:34:52.009Z,14.00
2018-01-25T12:37:19.459Z,14.10
2018-01-25T12:39:46.911Z,14.20
2018-01-25T12:42:14.354Z,14.00
2018-01-25T12:44:41.819Z,13.80
2018-01-25T12:47:09.291Z,13.80
2018-01-25T12:49:37.507Z,13.80
2018-01-25T12:52:04.967Z,13.80
2018-01-25T12:54:32.427Z,13.80
2018-01-25T12:56:59.877Z,13.90
2018-01-25T12:59:27.337Z,14.00
2018-01-25T13:01:54.778Z,13.90
2018-01-25T13:04:23.018Z,14.00
2018-01-25T13:06:50.469Z,13.90
2018-01-25T13:09:17.916Z,13.90
2018-01-25T13:11:45.377Z,13.80
2018-01-25T13:14:12.829Z,13.90
2018-01-25T13:16:40.298Z,14.00
2018-01-25T13:19:07.757Z,14.00
2018-01-25T13:21:35.214Z,14.00
2018-01-25T13:24:02.679Z,14.00
2018-01-25T13:26:30.129Z,14.00
2018-01-25T13:28:57.585Z,14.00
2018-01-25T13:31:25.033Z,14.00
2018-01-25T13:33:52.481Z,14.10
2018-01-25T13:36:20.698Z,14.10
2018-01-25T13:38:48.908Z,14.10
2018-01-25T13:41:16.374Z,13.40
2018-01-25T13:43:44.595Z,14.10
2018-01-25T13:46:12.813Z,14.00
2018-01-25T13:48:40.285Z,14.00
2018-01-25T13:51:07.789Z,14.00
2018-01-25T13:53:36.005Z,14.00
2018-01-25T13:56:03.448Z,14.00
2018-01-25T13:58:30.909Z,13.90
2018-01-25T14:00:58.375Z,13.80
2018-01-25T14:03:25.831Z,13.90
2018-01-25T14:05:53.291Z,13.90
2018-01-25T14:08:20.738Z,13.80
2018-01-25T14:10:48.194Z,13.80
2018-01-25T14:13:15.646Z,13.80
2018-01-25T14:15:43.087Z,13.70
2018-01-25T14:18:10.534Z,13.70
2018-01-25T14:20:38.759Z,13.60
2018-01-25T14:23:06.196Z,13.60
2018-01-25T14:25:34.126Z,13.60
2018-01-25T14:28:01.586Z,13.50
2018-01-25T14:30:29.799Z,13.50
2018-01-25T14:32:57.261Z,13.40
2018-01-25T14:35:24.708Z,13.40
2018-01-25T14:37:52.175Z,13.40
2018-01-25T14:40:19.622Z,13.30
2018-01-25T14:42:47.087Z,13.20
2018-01-25T14:45:14.590Z,13.10
2018-01-25T14:47:42.000Z,13.10
2018-01-25T14:50:09.448Z,13.10
2018-01-25T14:52:36.906Z,13.00
2018-01-25T14:55:04.576Z,13.00
2018-01-25T14:57:32.021Z,12.90
2018-01-25T14:59:59.483Z,12.80
2018-01-25T15:02:26.938Z,12.70
2018-01-25T15:04:54.391Z,12.70
2018-01-25T15:07:21.849Z,12.60
2018-01-25T15:09:49.318Z,12.50
2018-01-25T15:12:16.760Z,12.50
2018-01-25T15:14:44.220Z,12.50
2018-01-25T15:17:11.680Z,12.50
2018-01-25T15:19:39.134Z,12.30
2018-01-25T15:22:06.588Z,12.30
2018-01-25T15:24:34.025Z,12.20
2018-01-25T15:27:01.469Z,12.10
2018-01-25T15:29:29.694Z,12.00
2018-01-25T15:31:57.154Z,12.00
2018-01-25T15:34:24.610Z,11.90
2018-01-25T15:36:52.056Z,11.80
2018-01-25T15:39:19.509Z,11.60
2018-01-25T15:41:46.974Z,11.50
2018-01-25T15:44:14.451Z,11.40
2018-01-25T15:46:41.928Z,11.30
2018-01-25T15:49:10.154Z,11.20
2018-01-25T15:51:38.373Z,11.10
2018-01-25T15:54:05.856Z,11.10
2018-01-25T15:56:34.073Z,11.00
2018-01-25T15:59:01.540Z,10.90
2018-01-25T16:01:28.988Z,10.90
2018-01-25T16:03:56.454Z,10.80
2018-01-25T16:06:23.921Z,10.60
2018-01-25T16:08:51.387Z,10.30
2018-01-25T16:11:18.841Z,10.20
2018-01-25T16:13:46.288Z,10.10
2018-01-25T16:16:13.771Z,10.10
2018-01-25T16:18:42.003Z,9.90
2018-01-25T16:21:09.465Z,9.80
2018-01-25T16:23:36.926Z,9.80
2018-01-25T16:26:04.380Z,9.60
2018-01-25T16:28:31.842Z,9.50
2018-01-25T16:30:59.303Z,9.50
2018-01-25T16:33:26.751Z,9.50
2018-01-25T16:35:54.204Z,9.50
2018-01-25T16:38:21.670Z,9.30
2018-01-25T16:40:49.142Z,9.10
2018-01-25T16:43:16.593Z,9.30
2018-01-25T16:45:44.056Z,9.10
2018-01-25T16:48:11.537Z,8.90
2018-01-25T16:50:38.996Z,8.50
2018-01-25T16:53:06.438Z,8.70
2018-01-25T16:55:34.653Z,8.40
2018-01-25T16:58:02.102Z,8.30
2018-01-25T17:00:29.557Z,8.30
2018-01-25T17:02:57.010Z,8.30
2018-01-25T17:05:24.463Z,8.10
2018-01-25T17:07:51.924Z,8.00
2018-01-25T17:10:19.384Z,7.90
2018-01-25T17:12:46.896Z,7.80
2018-01-25T17:15:14.394Z,7.80
2018-01-25T17:17:41.840Z,7.80
2018-01-25T17:20:09.314Z,7.70
2018-01-25T17:22:36.823Z,7.60
2018-01-25T17:25:04.317Z,7.50
2018-01-25T17:27:31.726Z,7.50
2018-01-25T17:29:59.188Z,7.50
2018-01-25T17:32:26.632Z,7.40
2018-01-25T17:34:54.096Z,7.40
2018-01-25T17:37:21.622Z,7.30
2018-01-25T17:39:49.099Z,7.10
2018-01-25T17:42:16.557Z,6.90
2018-01-25T17:44:44.045Z,6.90
2018-01-25T17:47:11.558Z,7.10
2018-01-25T17:49:39.055Z,7.00
2018-01-25T17:52:06.496Z,7.00
2018-01-25T17:54:33.966Z,7.00
2018-01-25T17:57:01.431Z,6.90
2018-01-25T17:59:28.888Z,6.90
2018-01-25T18:01:57.174Z,6.70
2018-01-25T18:04:24.630Z,6.60
2018-01-25T18:06:52.859Z,6.60
2018-01-25T18:09:20.314Z,6.60
2018-01-25T18:11:48.787Z,6.60
2018-01-25T18:14:16.282Z,6.50
2018-01-25T18:16:43.784Z,6.60
2018-01-25T18:19:11.243Z,6.60
2018-01-25T18:21:38.700Z,6.60
2018-01-25T18:24:06.160Z,6.60
2018-01-25T18:26:33.656Z,6.60
2018-01-25T18:29:01.361Z,6.50
2018-01-25T18:31:29.629Z,6.30
2018-01-25T18:33:57.897Z,6.30
2018-01-25T18:36:26.173Z,6.20
2018-01-25T18:38:54.448Z,6.30
2018-01-25T18:41:22.723Z,6.40
2018-01-25T18:43:50.938Z,6.40
2018-01-25T18:46:18.847Z,6.30
2018-01-25T18:48:46.355Z,6.20
2018-01-25T18:51:14.258Z,6.40
2018-01-25T18:53:42.543Z,6.20
2018-01-25T18:56:10.008Z,6.20
2018-01-25T18:58:38.240Z,6.10
2018-01-25T19:01:05.766Z,6.00
2018-01-25T19:03:33.995Z,5.90
2018-01-25T19:06:01.463Z,5.90
2018-01-25T19:08:28.979Z,5.80
2018-01-25T19:10:56.480Z,5.80
2018-01-25T19:13:23.986Z,5.70
2018-01-25T19:15:51.433Z,5.50
2018-01-25T19:18:18.958Z,5.40
2018-01-25T19:20:46.462Z,5.30
2018-01-25T19:23:13.928Z,5.20
2018-01-25T19:25:41.400Z,5.30
2018-01-25T19:28:09.621Z,5.40
2018-01-25T19:30:37.868Z,5.50
2018-01-25T19:33:05.378Z,5.40
2018-01-25T19:35:32.887Z,5.40
2018-01-25T19:38:00.345Z,5.40
2018-01-25T19:40:27.854Z,5.30
2018-01-25T19:42:55.361Z,5.10
2018-01-25T19:45:22.818Z,3.90
2018-01-25T19:47:50.277Z,5.20
2018-01-25T19:50:18.557Z,5.10
2018-01-25T19:52:46.465Z,5.10
2018-01-25T19:55:13.959Z,5.00
2018-01-25T19:57:41.460Z,4.90
2018-01-25T20:00:09.733Z,4.90
2018-01-25T20:02:37.991Z,4.80
2018-01-25T20:05:05.462Z,4.80
2018-01-25T20:07:33.736Z,4.80
2018-01-25T20:10:01.187Z,4.80
2018-01-25T20:12:29.571Z,4.90
2018-01-25T20:14:57.072Z,4.80
2018-01-25T20:17:24.578Z,4.80
2018-01-25T20:19:52.040Z,4.80
2018-01-25T20:22:20.308Z,4.80
2018-01-25T20:24:47.810Z,4.80
2018-01-25T20:27:15.259Z,4.90
2018-01-25T20:29:42.777Z,4.80
2018-01-25T20:32:10.271Z,4.80
2018-01-25T20:34:37.782Z,4.80
2018-01-25T20:37:05.285Z,4.80
2018-01-25T20:39:32.724Z,4.70
2018-01-25T20:42:00.953Z,4.70
2018-01-25T20:44:28.466Z,4.60
2018-01-25T20:46:56.716Z,4.60
2018-01-25T20:49:24.222Z,4.20
2018-01-25T20:51:51.715Z,5.40
2018-01-25T20:54:19.225Z,4.40
2018-01-25T20:56:46.725Z,4.40
2018-01-25T20:59:14.229Z,4.60
2018-01-25T21:01:42.440Z,4.80
2018-01-25T21:04:09.960Z,4.70
2018-01-25T21:06:38.178Z,4.80
2018-01-25T21:09:06.458Z,4.80
2018-01-25T21:11:33.960Z,4.70
2018-01-25T21:14:02.248Z,4.90
2018-01-25T21:16:30.465Z,4.90
2018-01-25T21:18:57.970Z,5.00
2018-01-25T21:21:26.250Z,4.90
2018-01-25T21:23:54.483Z,4.90
2018-01-25T21:26:21.990Z,4.90
2018-01-25T21:28:49.443Z,4.90
2018-01-25T21:31:16.896Z,4.80
2018-01-25T21:33:44.427Z,4.90
2018-01-25T21:36:11.914Z,4.80
2018-01-25T21:38:40.167Z,4.80
2018-01-25T21:41:07.621Z,4.70
2018-01-25T21:43:35.085Z,4.60
2018-01-25T21:46:02.611Z,4.80
2018-01-25T21:48:30.121Z,4.10
2018-01-25T21:50:58.393Z,4.60
2018-01-25T21:53:26.667Z,4.70
2018-01-25T21:55:54.986Z,4.60
2018-01-25T21:58:22.497Z,4.70
2018-01-25T22:00:50.790Z,4.80
2018-01-25T22:03:19.056Z,4.80
2018-01-25T22:05:47.272Z,4.90
2018-01-25T22:08:14.783Z,4.80
2018-01-25T22:10:43.045Z,4.70
2018-01-25T22:13:10.544Z,4.70
2018-01-25T22:15:38.000Z,4.80
2018-01-25T22:18:05.470Z,4.80
2018-01-25T22:20:32.994Z,4.90
2018-01-25T22:23:01.206Z,4.80
2018-01-25T22:25:28.704Z,4.80
2018-01-25T22:27:56.188Z,4.80
2018-01-25T22:30:24.417Z,4.70
2018-01-25T22:32:52.186Z,4.60
2018-01-25T22:35:19.640Z,4.60
2018-01-25T22:37:47.126Z,4.50
2018-01-25T22:40:15.408Z,4.50
2018-01-25T22:42:43.672Z,4.40
2018-01-25T22:45:11.164Z,4.40
2018-01-25T22:47:38.601Z,4.00
2018-01-25T22:50:06.062Z,4.20
2018-01-25T22:52:34.354Z,4.10
2018-01-25T22:55:02.297Z,4.10
2018-01-25T22:57:30.510Z,4.10
2018-01-25T22:59:58.039Z,4.10
2018-01-25T23:02:26.282Z,4.20
2018-01-25T23:04:53.771Z,4.20
2018-01-25T23:07:21.980Z,4.40
2018-01-25T23:09:49.494Z,4.40
2018-01-25T23:12:18.030Z,4.40
2018-01-25T23:14:46.301Z,4.50
2018-01-25T23:17:14.571Z,4.40
2018-01-25T23:19:42.108Z,4.30
2018-01-25T23:22:09.692Z,4.30
2018-01-25T23:24:37.195Z,4.30
2018-01-25T23:27:04.651Z,4.40
2018-01-25T23:29:32.202Z,4.20
2018-01-25T23:32:00.473Z,4.10
2018-01-25T23:34:27.922Z,4.00
2018-01-25T23:36:55.373Z,4.20
2018-01-25T23:39:22.838Z,3.90
2018-01-25T23:41:50.338Z,4.00
2018-01-25T23:44:17.849Z,4.10
2018-01-25T23:46:45.293Z,3.90
2018-01-25T23:49:13.169Z,3.80
2018-01-25T23:51:41.398Z,4.00
2018-01-25T23:54:08.856Z,3.90
2018-01-25T23:56:36.338Z,3.90
2018-01-25T23:59:03.810Z,3.90
